createdAt,value
2022-11-09T00:01:09.281Z,16.35
2022-11-09T00:03:38.793Z,13.35
2022-11-09T00:06:08.309Z,12.88
2022-11-09T00:08:39.321Z,14.05
2022-11-09T00:11:09.273Z,12.65
2022-11-09T00:13:38.819Z,13.70
2022-11-09T00:16:12.022Z,12.45
2022-11-09T00:18:45.957Z,13.30
2022-11-09T00:21:16.234Z,15.02
2022-11-09T00:23:45.785Z,14.35
2022-11-09T00:26:16.840Z,14.05
2022-11-09T00:31:19.069Z,14.40
2022-11-09T00:33:50.699Z,14.18
2022-11-09T00:36:20.643Z,13.10
2022-11-09T00:38:51.478Z,13.50
2022-11-09T00:41:20.927Z,15.63
2022-11-09T00:43:50.469Z,13.15
2022-11-09T00:46:22.686Z,13.23
2022-11-09T00:48:52.420Z,13.45
2022-11-09T00:51:21.943Z,14.30
2022-11-09T00:53:54.649Z,16.50
2022-11-09T00:56:24.584Z,13.55
2022-11-09T00:58:55.763Z,15.50
2022-11-09T01:03:57.366Z,14.20
2022-11-09T01:06:27.592Z,13.77
2022-11-09T01:08:57.128Z,16.83
2022-11-09T01:11:26.856Z,14.27
2022-11-09T01:13:56.311Z,15.50
2022-11-09T01:16:28.421Z,17.75
2022-11-09T01:18:58.056Z,17.45
2022-11-09T01:21:27.762Z,13.13
2022-11-09T01:23:58.533Z,16.42
2022-11-09T01:26:28.129Z,17.70
2022-11-09T01:28:57.624Z,17.00
2022-11-09T01:31:29.723Z,19.38
2022-11-09T01:33:59.202Z,16.88
2022-11-09T01:36:28.660Z,17.98
2022-11-09T01:38:58.166Z,17.13
2022-11-09T01:41:28.614Z,16.73
2022-11-09T01:44:08.920Z,16.35
2022-11-09T01:46:43.591Z,16.63
2022-11-09T01:49:16.135Z,15.88
2022-11-09T01:51:46.809Z,16.52
2022-11-09T01:54:18.166Z,16.00
2022-11-09T01:56:47.727Z,18.15
2022-11-09T01:59:18.570Z,16.77
2022-11-09T02:01:50.658Z,16.58
2022-11-09T02:04:28.912Z,14.27
2022-11-09T02:06:58.665Z,16.73
2022-11-09T02:09:29.658Z,16.13
2022-11-09T02:11:59.127Z,15.27
2022-11-09T02:14:29.108Z,15.23
2022-11-09T02:17:01.115Z,16.42
2022-11-09T02:19:30.619Z,15.55
2022-11-09T02:22:02.643Z,15.55
2022-11-09T02:24:32.102Z,17.50
2022-11-09T02:27:01.570Z,15.30
2022-11-09T02:29:32.153Z,16.48
2022-11-09T02:32:03.427Z,16.17
2022-11-09T02:34:33.180Z,14.63
2022-11-09T02:37:05.237Z,14.85
2022-11-09T02:39:34.719Z,15.77
2022-11-09T02:42:10.064Z,15.07
2022-11-09T02:44:41.440Z,14.30
2022-11-09T02:49:40.139Z,15.80
2022-11-09T02:52:12.172Z,15.88
2022-11-09T02:54:41.606Z,17.50
2022-11-09T02:57:11.086Z,16.75
2022-11-09T02:59:40.578Z,18.42
2022-11-09T03:02:10.073Z,17.27
2022-11-09T03:04:39.545Z,16.08
2022-11-09T03:07:09.704Z,16.73
2022-11-09T03:09:41.835Z,18.93
2022-11-09T03:12:23.619Z,17.23
2022-11-09T03:14:53.077Z,16.83
2022-11-09T03:17:22.555Z,18.92
2022-11-09T03:19:52.017Z,16.10
2022-11-09T03:22:21.520Z,15.55
2022-11-09T03:24:53.549Z,17.58
2022-11-09T03:27:23.001Z,14.65
2022-11-09T03:29:52.474Z,17.30
2022-11-09T03:32:21.942Z,17.10
2022-11-09T03:34:51.804Z,16.10
2022-11-09T03:37:21.299Z,18.05
2022-11-09T03:39:53.579Z,18.38
2022-11-09T03:42:23.010Z,19.75
2022-11-09T03:44:52.562Z,17.98
2022-11-09T03:47:22.036Z,16.92
2022-11-09T03:49:51.500Z,17.40
2022-11-09T03:52:20.956Z,17.77
2022-11-09T03:54:52.977Z,18.20
2022-11-09T03:57:22.401Z,18.40
2022-11-09T03:59:51.849Z,16.08
2022-11-09T04:02:21.290Z,19.33
2022-11-09T04:04:50.738Z,16.83
2022-11-09T04:07:20.223Z,16.90
2022-11-09T04:09:49.754Z,16.55
2022-11-09T04:12:21.784Z,15.98
2022-11-09T04:14:51.243Z,16.73
2022-11-09T04:17:20.683Z,16.67
2022-11-09T04:19:50.178Z,17.23
2022-11-09T04:22:19.617Z,17.13
2022-11-09T04:24:49.151Z,15.38
2022-11-09T04:27:21.239Z,15.02
2022-11-09T04:29:50.717Z,16.65
2022-11-09T04:32:20.164Z,18.83
2022-11-09T04:34:49.627Z,18.25
2022-11-09T04:37:19.099Z,17.98
2022-11-09T04:39:48.583Z,19.27
2022-11-09T04:42:18.044Z,17.52
2022-11-09T04:44:50.106Z,17.95
2022-11-09T04:47:19.539Z,16.90
2022-11-09T04:49:49.004Z,18.30
2022-11-09T04:52:18.471Z,19.55
2022-11-09T04:54:47.881Z,21.67
2022-11-09T04:57:17.301Z,20.67
2022-11-09T04:59:46.747Z,19.48
2022-11-09T05:02:18.839Z,19.90
2022-11-09T05:04:48.278Z,19.60
2022-11-09T05:07:17.749Z,22.08
2022-11-09T05:09:47.232Z,21.33
2022-11-09T05:12:16.647Z,19.83
2022-11-09T05:14:46.088Z,20.95
2022-11-09T05:17:18.157Z,17.77
2022-11-09T05:19:48.862Z,15.10
2022-11-09T05:22:34.749Z,15.68
2022-11-09T05:25:04.252Z,17.63
2022-11-09T05:27:33.693Z,17.15
2022-11-09T05:30:03.155Z,19.98
2022-11-09T05:32:35.242Z,19.60
2022-11-09T05:35:04.814Z,19.23
2022-11-09T05:37:34.480Z,17.58
2022-11-09T05:40:04.072Z,16.05
2022-11-09T05:42:33.572Z,19.25
2022-11-09T05:45:28.012Z,22.20
2022-11-09T05:47:55.124Z,21.00
2022-11-09T05:50:24.579Z,16.92
2022-11-09T05:52:54.506Z,18.80
2022-11-09T05:55:23.970Z,23.30
2022-11-09T05:57:53.407Z,15.55
2022-11-09T06:00:24.047Z,16.65
2022-11-09T06:02:56.107Z,16.13
2022-11-09T06:05:25.766Z,16.90
2022-11-09T06:07:55.223Z,15.88
2022-11-09T06:10:24.699Z,15.75
2022-11-09T06:12:54.158Z,16.25
2022-11-09T06:15:24.230Z,15.85
2022-11-09T06:17:57.002Z,18.30
2022-11-09T06:20:26.789Z,15.13
2022-11-09T06:23:02.552Z,15.10
2022-11-09T06:25:33.648Z,16.38
2022-11-09T06:28:03.209Z,15.80
2022-11-09T06:30:32.712Z,13.63
2022-11-09T06:33:05.267Z,14.45
2022-11-09T06:35:34.940Z,14.57
2022-11-09T06:38:04.395Z,14.07
2022-11-09T06:40:33.845Z,13.25
2022-11-09T06:43:03.283Z,13.98
2022-11-09T06:45:33.072Z,12.10
2022-11-09T06:48:06.117Z,12.38
2022-11-09T06:50:36.058Z,12.02
2022-11-09T06:53:07.835Z,12.90
2022-11-09T06:55:37.672Z,13.25
2022-11-09T06:58:08.421Z,20.70
2022-11-09T07:00:37.953Z,15.57
2022-11-09T07:03:09.977Z,15.20
2022-11-09T07:05:40.868Z,13.40
2022-11-09T07:08:10.322Z,12.98
2022-11-09T07:10:39.771Z,15.45
2022-11-09T07:13:09.429Z,14.32
2022-11-09T07:15:39.142Z,14.63
2022-11-09T07:18:13.213Z,15.70
2022-11-09T07:20:42.754Z,15.50
2022-11-09T07:23:12.226Z,13.73
2022-11-09T07:25:41.723Z,13.50
2022-11-09T07:28:11.491Z,13.57
2022-11-09T07:30:41.042Z,13.55
2022-11-09T07:33:18.151Z,12.27
2022-11-09T07:35:47.681Z,13.23
2022-11-09T07:38:19.645Z,12.93
2022-11-09T07:40:49.099Z,12.80
2022-11-09T07:43:19.115Z,12.52
2022-11-09T07:45:48.800Z,13.20
2022-11-09T07:48:20.866Z,13.35
2022-11-09T07:50:50.326Z,14.77
2022-11-09T07:53:21.509Z,16.13
2022-11-09T07:55:59.276Z,13.32
2022-11-09T07:58:28.738Z,12.70
2022-11-09T08:00:59.346Z,13.95
2022-11-09T08:03:31.361Z,13.85
2022-11-09T08:06:03.621Z,13.30
2022-11-09T08:08:33.103Z,13.05
2022-11-09T08:11:02.562Z,14.98
2022-11-09T08:13:32.050Z,15.20
2022-11-09T08:16:03.715Z,14.48
2022-11-09T08:18:35.765Z,17.52
2022-11-09T08:21:05.892Z,17.15
2022-11-09T08:23:35.356Z,18.05
2022-11-09T08:26:05.165Z,14.32
2022-11-09T08:28:34.622Z,13.43
2022-11-09T08:31:05.539Z,9.85
2022-11-09T08:33:38.545Z,10.98
2022-11-09T08:36:12.660Z,11.27
2022-11-09T08:38:42.141Z,10.45
2022-11-09T08:41:13.626Z,10.18
2022-11-09T08:43:43.688Z,10.38
2022-11-09T08:46:13.379Z,9.30
2022-11-09T08:48:45.395Z,11.82
2022-11-09T08:51:14.867Z,8.80
2022-11-09T08:53:44.325Z,10.05
2022-11-09T08:56:18.379Z,9.07
2022-11-09T08:58:47.892Z,10.02
2022-11-09T09:01:17.859Z,9.35
2022-11-09T09:03:50.059Z,10.27
2022-11-09T09:06:19.545Z,8.45
2022-11-09T09:08:49.169Z,6.75
2022-11-09T09:11:18.846Z,10.20
2022-11-09T09:13:48.308Z,6.43
2022-11-09T09:16:18.419Z,7.78
2022-11-09T09:18:50.434Z,7.97
2022-11-09T09:21:19.884Z,8.40
2022-11-09T09:23:50.291Z,7.15
2022-11-09T09:26:19.807Z,7.13
2022-11-09T09:28:49.292Z,6.55
2022-11-09T09:31:19.191Z,6.43
2022-11-09T09:33:51.378Z,5.85
2022-11-09T09:36:21.858Z,4.85
2022-11-09T09:38:53.289Z,5.60
2022-11-09T09:41:25.679Z,7.18
2022-11-09T09:43:56.939Z,5.00
2022-11-09T09:46:28.151Z,6.63
2022-11-09T09:49:04.522Z,5.95
2022-11-09T09:51:36.870Z,4.53
2022-11-09T09:54:08.809Z,3.90
2022-11-09T09:56:41.060Z,6.57
2022-11-09T09:59:15.015Z,7.93
2022-11-09T10:01:46.324Z,4.00
2022-11-09T10:04:21.069Z,3.80
2022-11-09T10:07:03.360Z,5.28
2022-11-09T10:09:48.799Z,4.78
2022-11-09T10:12:21.074Z,5.82
2022-11-09T10:15:03.376Z,6.93
2022-11-09T10:17:38.413Z,5.03
2022-11-09T10:20:22.255Z,6.00
2022-11-09T10:22:56.563Z,5.43
2022-11-09T10:25:50.359Z,4.78
2022-11-09T10:28:18.462Z,3.63
2022-11-09T10:30:48.092Z,4.97
2022-11-09T10:33:20.875Z,5.50
2022-11-09T10:35:56.174Z,6.22
2022-11-09T10:38:27.401Z,5.10
2022-11-09T10:40:59.310Z,4.97
2022-11-09T10:43:29.025Z,4.97
2022-11-09T10:46:05.001Z,5.10
2022-11-09T10:48:35.697Z,4.82
2022-11-09T10:51:07.758Z,6.00
2022-11-09T10:53:37.438Z,5.57
2022-11-09T10:56:20.326Z,5.40
2022-11-09T10:58:51.739Z,6.68
2022-11-09T11:01:22.911Z,4.30
2022-11-09T11:03:53.480Z,4.60
2022-11-09T11:06:31.646Z,3.95
2022-11-09T11:09:16.933Z,1.98
2022-11-09T11:11:46.362Z,4.38
2022-11-09T11:14:22.668Z,3.90
2022-11-09T11:16:53.486Z,5.30
2022-11-09T11:19:37.050Z,4.90
2022-11-09T11:22:27.356Z,4.18
2022-11-09T11:24:58.295Z,3.70
2022-11-09T11:27:32.061Z,5.57
2022-11-09T11:30:10.454Z,4.72
2022-11-09T11:32:41.333Z,7.10
2022-11-09T11:35:17.347Z,3.25
2022-11-09T11:37:54.330Z,5.63
2022-11-09T11:40:28.195Z,6.60
2022-11-09T11:43:21.037Z,5.95
2022-11-09T11:45:53.901Z,3.85
2022-11-09T11:48:41.913Z,4.10
2022-11-09T11:51:12.428Z,3.97
2022-11-09T11:53:56.405Z,5.18
2022-11-09T11:56:28.737Z,3.08
2022-11-09T11:59:20.801Z,4.05
2022-11-09T12:01:58.071Z,7.07
2022-11-09T12:04:50.316Z,5.13
2022-11-09T12:07:27.397Z,5.28
2022-11-09T12:10:11.870Z,3.90
2022-11-09T12:12:45.127Z,2.55
2022-11-09T12:15:24.164Z,4.18
2022-11-09T12:17:59.116Z,3.08
2022-11-09T12:20:31.693Z,3.22
2022-11-09T12:23:11.599Z,4.30
2022-11-09T12:25:46.869Z,5.95
2022-11-09T12:28:27.837Z,5.45
2022-11-09T12:31:05.565Z,4.95
2022-11-09T12:33:43.643Z,4.25
2022-11-09T12:36:15.579Z,3.58
2022-11-09T12:38:53.445Z,3.78
2022-11-09T12:41:25.520Z,4.20
2022-11-09T12:43:56.354Z,3.72
2022-11-09T12:46:29.293Z,4.45
2022-11-09T12:48:58.922Z,6.13
2022-11-09T12:51:28.620Z,4.35
2022-11-09T12:53:58.189Z,3.17
2022-11-09T12:56:32.107Z,3.63
2022-11-09T12:59:22.381Z,3.95
2022-11-09T13:01:56.117Z,5.45
2022-11-09T13:04:26.374Z,6.22
2022-11-09T13:07:29.230Z,4.43
2022-11-09T13:09:59.628Z,4.35
2022-11-09T13:12:42.655Z,4.78
2022-11-09T13:15:20.345Z,4.45
2022-11-09T13:17:56.679Z,4.65
2022-11-09T13:20:55.504Z,6.13
2022-11-09T13:24:01.620Z,5.35
2022-11-09T13:26:58.882Z,4.53
2022-11-09T13:29:31.649Z,4.20
2022-11-09T13:32:06.455Z,2.97
2022-11-09T13:34:42.722Z,4.65
2022-11-09T13:37:39.957Z,6.50
2022-11-09T13:40:41.891Z,4.68
2022-11-09T13:43:19.971Z,4.93
2022-11-09T13:45:53.049Z,4.65
2022-11-09T13:48:45.750Z,5.57
2022-11-09T13:51:16.494Z,3.42
2022-11-09T13:53:57.503Z,6.75
2022-11-09T13:56:35.193Z,4.15
2022-11-09T13:59:09.460Z,6.90
2022-11-09T14:01:50.228Z,5.15
2022-11-09T14:04:27.342Z,5.38
2022-11-09T14:07:04.287Z,5.20
2022-11-09T14:09:37.752Z,5.57
2022-11-09T14:12:14.441Z,4.97
2022-11-09T14:15:13.939Z,3.05
2022-11-09T14:17:49.513Z,5.03
2022-11-09T14:20:24.359Z,6.03
2022-11-09T14:22:53.798Z,3.90
2022-11-09T14:25:23.925Z,5.28
2022-11-09T14:27:57.357Z,5.70
2022-11-09T14:30:28.014Z,8.70
2022-11-09T14:33:00.907Z,6.28
2022-11-09T14:35:33.512Z,5.97
2022-11-09T14:38:04.284Z,5.38
2022-11-09T14:40:34.864Z,5.55
2022-11-09T14:43:05.333Z,5.75
2022-11-09T14:45:34.853Z,4.82
2022-11-09T14:48:07.580Z,6.53
2022-11-09T14:50:39.200Z,6.63
2022-11-09T14:53:08.660Z,6.85
2022-11-09T14:55:39.930Z,4.68
2022-11-09T14:58:12.077Z,6.35
2022-11-09T15:11:33.670Z,4.93
2022-11-09T15:14:03.122Z,7.75
2022-11-09T15:16:33.489Z,5.63
2022-11-09T15:19:03.003Z,8.70
2022-11-09T15:21:37.881Z,6.82
2022-11-09T15:24:16.915Z,4.85
2022-11-09T15:26:49.515Z,6.55
2022-11-09T15:29:40.610Z,6.07
2022-11-09T15:32:16.151Z,5.65
2022-11-09T15:34:47.441Z,5.57
2022-11-09T15:37:28.106Z,4.55
2022-11-09T15:39:57.658Z,5.18
2022-11-09T15:42:29.811Z,5.25
2022-11-09T15:45:00.408Z,6.60
2022-11-09T15:47:35.422Z,6.28
2022-11-09T15:50:07.209Z,6.55
2022-11-09T15:52:36.707Z,5.25
2022-11-09T15:55:06.600Z,8.18
2022-11-09T15:57:38.674Z,5.93
2022-11-09T16:00:13.487Z,4.82
2022-11-09T16:02:46.077Z,6.28
2022-11-09T16:05:15.760Z,6.78
2022-11-09T16:07:51.422Z,7.97
2022-11-09T16:10:23.321Z,6.10
2022-11-09T16:12:56.070Z,8.38
2022-11-09T16:15:25.626Z,12.65
2022-11-09T16:17:55.251Z,8.15
2022-11-09T16:20:24.763Z,6.60
2022-11-09T16:22:54.251Z,6.18
2022-11-09T16:25:23.849Z,6.20
2022-11-09T16:27:56.210Z,7.20
2022-11-09T16:30:25.710Z,8.27
2022-11-09T16:32:55.656Z,11.75
2022-11-09T16:35:27.802Z,12.40
2022-11-09T16:37:58.111Z,11.02
2022-11-09T16:40:29.037Z,8.85
2022-11-09T16:43:01.834Z,8.77
2022-11-09T16:45:33.668Z,10.95
2022-11-09T16:48:03.284Z,11.10
2022-11-09T16:50:32.767Z,10.65
2022-11-09T16:53:02.226Z,9.77
2022-11-09T16:55:31.826Z,10.82
2022-11-09T16:58:04.398Z,11.05
2022-11-09T17:00:55.706Z,9.23
2022-11-09T17:03:23.334Z,9.38
2022-11-09T17:05:52.806Z,7.80
2022-11-09T17:08:22.873Z,9.77
2022-11-09T17:10:52.619Z,10.15
2022-11-09T17:13:24.693Z,9.50
2022-11-09T17:15:54.612Z,9.07
2022-11-09T17:18:24.137Z,12.07
2022-11-09T17:20:53.699Z,11.13
2022-11-09T17:23:23.168Z,13.10
2022-11-09T17:25:59.164Z,11.23
2022-11-09T17:28:31.236Z,12.43
2022-11-09T17:31:00.696Z,12.50
2022-11-09T17:33:30.157Z,10.93
2022-11-09T17:36:02.729Z,8.25
2022-11-09T17:38:32.243Z,7.55
2022-11-09T17:41:06.013Z,10.40
2022-11-09T17:43:42.443Z,10.43
2022-11-09T17:46:13.545Z,12.90
2022-11-09T17:51:12.879Z,12.05
2022-11-09T17:53:42.439Z,11.00
2022-11-09T17:56:12.503Z,8.05
2022-11-09T17:58:45.576Z,7.85
2022-11-09T18:01:16.022Z,7.20
2022-11-09T18:03:45.742Z,8.20
2022-11-09T18:06:16.005Z,7.13
2022-11-09T18:08:45.506Z,10.63
2022-11-09T18:11:15.044Z,8.55
2022-11-09T18:13:47.235Z,11.20
2022-11-09T18:16:18.032Z,11.98
2022-11-09T18:18:47.555Z,8.63
2022-11-09T18:21:18.203Z,10.13
2022-11-09T18:23:48.051Z,9.52
2022-11-09T18:26:17.563Z,11.55
2022-11-09T18:28:49.601Z,10.30
2022-11-09T18:31:19.179Z,10.18
2022-11-09T18:33:48.710Z,14.27
2022-11-09T18:36:19.761Z,14.55
2022-11-09T18:41:21.965Z,9.35
2022-11-09T18:43:54.260Z,9.07
2022-11-09T18:46:23.965Z,11.80
2022-11-09T18:48:53.656Z,16.00
2022-11-09T18:51:23.385Z,11.80
2022-11-09T18:53:52.863Z,16.08
2022-11-09T18:56:24.540Z,12.55
2022-11-09T18:58:57.965Z,19.48
2022-11-09T19:01:27.687Z,12.90
2022-11-09T19:03:59.745Z,13.88
2022-11-09T19:06:29.519Z,63.78
2022-11-09T19:09:11.469Z,24.65
2022-11-09T19:11:40.954Z,41.13
2022-11-09T19:14:13.199Z,51.72
2022-11-09T19:16:42.655Z,33.53
2022-11-09T19:19:14.057Z,22.27
2022-11-09T19:21:44.400Z,19.45
2022-11-09T19:24:14.777Z,16.38
2022-11-09T19:26:44.201Z,11.60
2022-11-09T19:29:16.997Z,11.15
2022-11-09T19:31:47.215Z,10.05
2022-11-09T19:34:17.612Z,14.97
2022-11-09T19:36:47.416Z,12.20
2022-11-09T19:39:17.071Z,13.63
2022-11-09T19:41:46.606Z,11.68
2022-11-09T19:44:19.096Z,11.57
2022-11-09T19:46:48.619Z,11.70
2022-11-09T19:49:18.045Z,11.57
2022-11-09T19:51:47.758Z,13.65
2022-11-09T19:54:17.191Z,11.57
2022-11-09T19:56:46.663Z,12.98
2022-11-09T19:59:20.777Z,24.48
2022-11-09T20:01:50.459Z,19.25
2022-11-09T20:04:19.885Z,18.40
2022-11-09T20:06:49.349Z,17.75
2022-11-09T20:09:18.835Z,15.43
2022-11-09T20:12:00.918Z,15.10
2022-11-09T20:14:32.969Z,12.25
2022-11-09T20:17:03.692Z,16.88
2022-11-09T20:19:33.286Z,18.02
2022-11-09T20:22:02.954Z,14.52
2022-11-09T20:24:32.395Z,13.43
2022-11-09T20:27:02.072Z,10.93
2022-11-09T20:29:34.144Z,12.75
2022-11-09T20:32:03.607Z,9.73
2022-11-09T20:34:33.030Z,9.82
2022-11-09T20:37:02.487Z,9.55
2022-11-09T20:39:31.956Z,8.63
2022-11-09T20:42:01.426Z,9.15
2022-11-09T20:44:30.885Z,14.07
2022-11-09T20:47:02.927Z,13.38
2022-11-09T20:49:32.391Z,11.50
2022-11-09T20:52:01.853Z,11.10
2022-11-09T20:54:31.278Z,8.93
2022-11-09T20:57:00.749Z,9.75
2022-11-09T20:59:30.173Z,7.85
2022-11-09T21:02:02.250Z,8.52
2022-11-09T21:04:31.940Z,8.00
2022-11-09T21:07:01.606Z,9.77
2022-11-09T21:09:31.108Z,8.25
2022-11-09T21:12:12.839Z,10.25
2022-11-09T21:14:42.295Z,9.68
2022-11-09T21:17:16.091Z,6.35
2022-11-09T21:19:45.528Z,6.28
2022-11-09T21:22:15.236Z,9.50
2022-11-09T21:24:57.165Z,11.45
2022-11-09T21:27:39.937Z,10.23
2022-11-09T21:30:12.680Z,10.57
2022-11-09T21:32:44.777Z,8.63
2022-11-09T21:35:14.294Z,9.68
2022-11-09T21:37:43.736Z,10.25
2022-11-09T21:40:14.071Z,9.05
2022-11-09T21:42:43.508Z,9.45
2022-11-09T21:45:13.236Z,8.63
2022-11-09T21:47:45.302Z,8.32
2022-11-09T21:50:14.768Z,7.72
2022-11-09T21:52:44.465Z,10.40
2022-11-09T21:55:13.942Z,8.00
2022-11-09T21:57:43.402Z,9.30
2022-11-09T22:00:14.272Z,8.70
2022-11-09T22:02:46.336Z,11.63
2022-11-09T22:05:21.735Z,10.05
2022-11-09T22:07:52.302Z,7.88
2022-11-09T22:10:21.907Z,10.50
2022-11-09T22:13:03.838Z,8.75
2022-11-09T22:15:45.787Z,11.63
2022-11-09T22:18:38.090Z,10.80
2022-11-09T22:21:05.037Z,10.95
2022-11-09T22:23:35.327Z,9.23
2022-11-09T22:26:04.792Z,8.98
2022-11-09T22:28:34.912Z,8.65
2022-11-09T22:31:04.347Z,7.75
2022-11-09T22:33:36.440Z,10.73
2022-11-09T22:36:07.197Z,12.93
2022-11-09T22:38:36.695Z,13.85
2022-11-09T22:41:07.248Z,16.60
2022-11-09T22:43:36.768Z,16.65
2022-11-09T22:46:06.734Z,26.38
2022-11-09T22:48:39.143Z,19.77
2022-11-09T22:51:08.993Z,18.70
2022-11-09T22:53:38.470Z,17.13
2022-11-09T22:56:08.382Z,12.00
2022-11-09T22:58:37.850Z,20.42
2022-11-09T23:01:09.113Z,14.75
2022-11-09T23:03:41.208Z,11.00
2022-11-09T23:06:11.713Z,7.90
2022-11-09T23:08:41.367Z,7.80
2022-11-09T23:11:13.363Z,10.98
2022-11-09T23:13:43.501Z,9.63
2022-11-09T23:16:13.633Z,8.05
2022-11-09T23:18:55.302Z,5.32
2022-11-09T23:21:29.374Z,7.68
2022-11-09T23:23:59.563Z,7.20
2022-11-09T23:26:26.541Z,6.07
2022-11-09T23:28:56.090Z,7.22
2022-11-09T23:31:27.069Z,5.70
2022-11-09T23:33:59.946Z,6.57
2022-11-09T23:36:29.511Z,7.25
2022-11-09T23:38:59.186Z,7.47
2022-11-09T23:41:28.609Z,8.35
2022-11-09T23:43:58.401Z,8.93
2022-11-09T23:46:27.855Z,9.23
2022-11-09T23:48:59.906Z,12.82
2022-11-09T23:51:29.336Z,11.00
2022-11-09T23:53:58.805Z,6.57
2022-11-09T23:56:28.243Z,9.75
2022-11-09T23:58:57.727Z,8.75
